sensor_id;sensor_type;location;lat;lon;timestamp;P1;durP1;ratioP1;P2;durP2;ratioP2
17564;SDS011;62994;52.126;5.596;2023-07-09T00:00:22;12.02;;;10.75;;
17564;SDS011;62994;52.126;5.596;2023-07-09T00:02:51;10.38;;;9.48;;
17564;SDS011;62994;52.126;5.596;2023-07-09T00:06:18;17.50;;;10.13;;
17564;SDS011;62994;52.126;5.596;2023-07-09T00:08:42;11.90;;;10.73;;
17564;SDS011;62994;52.126;5.596;2023-07-09T00:11:20;11.32;;;10.48;;
17564;SDS011;62994;52.126;5.596;2023-07-09T00:13:49;11.63;;;10.63;;
17564;SDS011;62994;52.126;5.596;2023-07-09T00:16:33;11.68;;;10.60;;
17564;SDS011;62994;52.126;5.596;2023-07-09T00:19:05;12.48;;;11.30;;
17564;SDS011;62994;52.126;5.596;2023-07-09T00:21:39;11.65;;;10.73;;
17564;SDS011;62994;52.126;5.596;2023-07-09T00:24:07;11.10;;;9.95;;
17564;SDS011;62994;52.126;5.596;2023-07-09T00:26:35;11.73;;;10.70;;
17564;SDS011;62994;52.126;5.596;2023-07-09T00:29:08;11.10;;;10.20;;
17564;SDS011;62994;52.126;5.596;2023-07-09T00:31:39;12.25;;;11.00;;
17564;SDS011;62994;52.126;5.596;2023-07-09T00:34:14;10.75;;;9.88;;
17564;SDS011;62994;52.126;5.596;2023-07-09T00:36:46;10.23;;;9.32;;
17564;SDS011;62994;52.126;5.596;2023-07-09T00:42:11;10.57;;;9.80;;
17564;SDS011;62994;52.126;5.596;2023-07-09T00:44:45;10.82;;;9.95;;
17564;SDS011;62994;52.126;5.596;2023-07-09T00:50:34;10.40;;;9.45;;
17564;SDS011;62994;52.126;5.596;2023-07-09T00:53:18;10.43;;;9.73;;
17564;SDS011;62994;52.126;5.596;2023-07-09T00:55:52;10.82;;;9.93;;
17564;SDS011;62994;52.126;5.596;2023-07-09T00:58:25;11.05;;;10.13;;
17564;SDS011;62994;52.126;5.596;2023-07-09T01:01:06;10.68;;;9.95;;
17564;SDS011;62994;52.126;5.596;2023-07-09T01:03:46;10.00;;;9.20;;
17564;SDS011;62994;52.126;5.596;2023-07-09T01:06:17;10.07;;;9.48;;
17564;SDS011;62994;52.126;5.596;2023-07-09T01:09:06;11.32;;;10.23;;
17564;SDS011;62994;52.126;5.596;2023-07-09T01:11:36;10.43;;;9.70;;
17564;SDS011;62994;52.126;5.596;2023-07-09T01:14:04;10.32;;;9.52;;
17564;SDS011;62994;52.126;5.596;2023-07-09T01:16:36;10.43;;;9.65;;
17564;SDS011;62994;52.126;5.596;2023-07-09T01:19:20;10.63;;;9.73;;
17564;SDS011;62994;52.126;5.596;2023-07-09T01:22:00;10.00;;;9.18;;
17564;SDS011;62994;52.126;5.596;2023-07-09T01:24:52;10.55;;;9.60;;
17564;SDS011;62994;52.126;5.596;2023-07-09T01:27:28;11.00;;;10.20;;
17564;SDS011;62994;52.126;5.596;2023-07-09T01:30:16;10.68;;;9.88;;
17564;SDS011;62994;52.126;5.596;2023-07-09T01:32:55;10.70;;;10.02;;
17564;SDS011;62994;52.126;5.596;2023-07-09T01:35:28;10.75;;;9.85;;
17564;SDS011;62994;52.126;5.596;2023-07-09T01:38:01;11.05;;;10.10;;
17564;SDS011;62994;52.126;5.596;2023-07-09T01:40:33;9.75;;;9.05;;
17564;SDS011;62994;52.126;5.596;2023-07-09T01:43:03;11.35;;;10.32;;
17564;SDS011;62994;52.126;5.596;2023-07-09T01:45:34;11.32;;;10.07;;
17564;SDS011;62994;52.126;5.596;2023-07-09T01:48:07;11.07;;;10.07;;
17564;SDS011;62994;52.126;5.596;2023-07-09T01:50:42;10.52;;;9.68;;
17564;SDS011;62994;52.126;5.596;2023-07-09T01:53:16;11.93;;;11.02;;
17564;SDS011;62994;52.126;5.596;2023-07-09T01:55:59;12.30;;;11.25;;
17564;SDS011;62994;52.126;5.596;2023-07-09T01:58:39;10.93;;;9.82;;
17564;SDS011;62994;52.126;5.596;2023-07-09T02:01:13;11.85;;;10.85;;
17564;SDS011;62994;52.126;5.596;2023-07-09T02:03:45;10.95;;;10.18;;
17564;SDS011;62994;52.126;5.596;2023-07-09T02:06:16;11.55;;;10.55;;
17564;SDS011;62994;52.126;5.596;2023-07-09T02:08:52;11.50;;;10.50;;
17564;SDS011;62994;52.126;5.596;2023-07-09T02:11:26;11.52;;;10.43;;
17564;SDS011;62994;52.126;5.596;2023-07-09T02:13:57;11.60;;;10.63;;
17564;SDS011;62994;52.126;5.596;2023-07-09T02:16:26;10.63;;;9.95;;
17564;SDS011;62994;52.126;5.596;2023-07-09T02:18:55;11.23;;;10.32;;
17564;SDS011;62994;52.126;5.596;2023-07-09T02:21:33;12.77;;;9.60;;
17564;SDS011;62994;52.126;5.596;2023-07-09T02:24:03;10.18;;;9.43;;
17564;SDS011;62994;52.126;5.596;2023-07-09T02:26:31;10.63;;;9.82;;
17564;SDS011;62994;52.126;5.596;2023-07-09T02:29:04;10.73;;;9.73;;
17564;SDS011;62994;52.126;5.596;2023-07-09T02:35:14;12.18;;;11.07;;
17564;SDS011;62994;52.126;5.596;2023-07-09T02:38:01;11.32;;;10.55;;
17564;SDS011;62994;52.126;5.596;2023-07-09T02:40:47;11.00;;;10.23;;
17564;SDS011;62994;52.126;5.596;2023-07-09T02:43:53;11.90;;;10.85;;
17564;SDS011;62994;52.126;5.596;2023-07-09T02:46:30;11.75;;;10.75;;
17564;SDS011;62994;52.126;5.596;2023-07-09T02:49:16;12.02;;;10.93;;
17564;SDS011;62994;52.126;5.596;2023-07-09T02:52:21;12.30;;;10.68;;
17564;SDS011;62994;52.126;5.596;2023-07-09T02:55:00;12.38;;;11.23;;
17564;SDS011;62994;52.126;5.596;2023-07-09T02:57:43;12.25;;;11.00;;
17564;SDS011;62994;52.126;5.596;2023-07-09T03:00:48;16.05;;;11.50;;
17564;SDS011;62994;52.126;5.596;2023-07-09T03:03:28;14.77;;;11.02;;
17564;SDS011;62994;52.126;5.596;2023-07-09T03:06:37;12.07;;;11.13;;
17564;SDS011;62994;52.126;5.596;2023-07-09T03:09:24;21.25;;;11.65;;
17564;SDS011;62994;52.126;5.596;2023-07-09T03:13:36;12.15;;;10.70;;
17564;SDS011;62994;52.126;5.596;2023-07-09T03:19:22;14.10;;;11.15;;
17564;SDS011;62994;52.126;5.596;2023-07-09T03:22:15;11.02;;;10.13;;
17564;SDS011;62994;52.126;5.596;2023-07-09T03:25:10;11.68;;;10.25;;
17564;SDS011;62994;52.126;5.596;2023-07-09T03:28:07;11.27;;;10.18;;
17564;SDS011;62994;52.126;5.596;2023-07-09T03:34:11;11.43;;;10.43;;
17564;SDS011;62994;52.126;5.596;2023-07-09T03:37:14;12.00;;;10.35;;
17564;SDS011;62994;52.126;5.596;2023-07-09T03:40:09;11.32;;;10.35;;
17564;SDS011;62994;52.126;5.596;2023-07-09T03:43:17;12.77;;;11.32;;
17564;SDS011;62994;52.126;5.596;2023-07-09T03:46:28;12.98;;;10.68;;
17564;SDS011;62994;52.126;5.596;2023-07-09T03:49:14;11.00;;;9.98;;
17564;SDS011;62994;52.126;5.596;2023-07-09T03:52:28;11.40;;;10.25;;
17564;SDS011;62994;52.126;5.596;2023-07-09T03:55:12;11.68;;;10.68;;
17564;SDS011;62994;52.126;5.596;2023-07-09T03:58:40;13.82;;;10.98;;
17564;SDS011;62994;52.126;5.596;2023-07-09T04:01:27;12.23;;;10.63;;
17564;SDS011;62994;52.126;5.596;2023-07-09T04:14:05;12.15;;;10.98;;
17564;SDS011;62994;52.126;5.596;2023-07-09T04:16:57;14.70;;;11.18;;
17564;SDS011;62994;52.126;5.596;2023-07-09T04:20:13;11.93;;;10.57;;
17564;SDS011;62994;52.126;5.596;2023-07-09T04:23:23;12.60;;;11.32;;
17564;SDS011;62994;52.126;5.596;2023-07-09T04:26:15;12.30;;;11.23;;
17564;SDS011;62994;52.126;5.596;2023-07-09T04:32:15;13.00;;;11.38;;
17564;SDS011;62994;52.126;5.596;2023-07-09T04:58:52;13.15;;;11.80;;
17564;SDS011;62994;52.126;5.596;2023-07-09T05:01:57;13.68;;;12.48;;
17564;SDS011;62994;52.126;5.596;2023-07-09T05:04:55;13.73;;;12.20;;
17564;SDS011;62994;52.126;5.596;2023-07-09T05:07:46;13.07;;;11.75;;
17564;SDS011;62994;52.126;5.596;2023-07-09T05:17:26;13.52;;;12.27;;
17564;SDS011;62994;52.126;5.596;2023-07-09T05:22:21;13.20;;;12.03;;
17564;SDS011;62994;52.126;5.596;2023-07-09T05:37:24;17.35;;;13.43;;
17564;SDS011;62994;52.126;5.596;2023-07-09T05:40:04;16.10;;;14.20;;
17564;SDS011;62994;52.126;5.596;2023-07-09T05:43:07;14.20;;;12.73;;
17564;SDS011;62994;52.126;5.596;2023-07-09T05:45:43;18.05;;;15.00;;
17564;SDS011;62994;52.126;5.596;2023-07-09T05:48:17;20.70;;;14.85;;
17564;SDS011;62994;52.126;5.596;2023-07-09T05:53:59;24.73;;;17.38;;
17564;SDS011;62994;52.126;5.596;2023-07-09T05:56:58;23.60;;;17.00;;
17564;SDS011;62994;52.126;5.596;2023-07-09T05:59:35;20.08;;;17.98;;
17564;SDS011;62994;52.126;5.596;2023-07-09T06:02:16;17.63;;;15.88;;
17564;SDS011;62994;52.126;5.596;2023-07-09T06:05:08;19.63;;;15.48;;
17564;SDS011;62994;52.126;5.596;2023-07-09T06:24:26;14.77;;;13.30;;
17564;SDS011;62994;52.126;5.596;2023-07-09T06:27:15;15.63;;;13.90;;
17564;SDS011;62994;52.126;5.596;2023-07-09T06:30:11;15.95;;;14.27;;
17564;SDS011;62994;52.126;5.596;2023-07-09T06:33:05;17.38;;;14.05;;
17564;SDS011;62994;52.126;5.596;2023-07-09T06:36:00;15.73;;;13.80;;
17564;SDS011;62994;52.126;5.596;2023-07-09T06:42:10;16.08;;;14.45;;
17564;SDS011;62994;52.126;5.596;2023-07-09T06:45:03;14.65;;;13.27;;
17564;SDS011;62994;52.126;5.596;2023-07-09T06:48:13;15.65;;;14.13;;
17564;SDS011;62994;52.126;5.596;2023-07-09T06:50:51;16.45;;;13.57;;
17564;SDS011;62994;52.126;5.596;2023-07-09T06:54:00;16.42;;;13.35;;
17564;SDS011;62994;52.126;5.596;2023-07-09T06:56:55;14.73;;;13.35;;
17564;SDS011;62994;52.126;5.596;2023-07-09T07:02:51;14.40;;;12.98;;
17564;SDS011;62994;52.126;5.596;2023-07-09T07:05:42;13.68;;;11.65;;
17564;SDS011;62994;52.126;5.596;2023-07-09T07:08:27;14.32;;;11.98;;
17564;SDS011;62994;52.126;5.596;2023-07-09T07:14:37;16.35;;;12.07;;
17564;SDS011;62994;52.126;5.596;2023-07-09T07:24:08;11.77;;;10.55;;
17564;SDS011;62994;52.126;5.596;2023-07-09T07:27:05;12.38;;;11.48;;
17564;SDS011;62994;52.126;5.596;2023-07-09T07:29:59;11.82;;;10.70;;
17564;SDS011;62994;52.126;5.596;2023-07-09T07:33:13;15.18;;;10.25;;
17564;SDS011;62994;52.126;5.596;2023-07-09T07:49:48;9.60;;;8.75;;
17564;SDS011;62994;52.126;5.596;2023-07-09T07:53:20;9.38;;;8.57;;
17564;SDS011;62994;52.126;5.596;2023-07-09T07:55:51;9.20;;;8.50;;
17564;SDS011;62994;52.126;5.596;2023-07-09T07:58:54;8.93;;;8.18;;
17564;SDS011;62994;52.126;5.596;2023-07-09T08:05:07;8.52;;;7.57;;
17564;SDS011;62994;52.126;5.596;2023-07-09T08:08:09;8.88;;;8.18;;
17564;SDS011;62994;52.126;5.596;2023-07-09T08:17:35;11.35;;;7.38;;
17564;SDS011;62994;52.126;5.596;2023-07-09T08:21:09;8.88;;;8.07;;
17564;SDS011;62994;52.126;5.596;2023-07-09T08:23:50;8.45;;;7.78;;
17564;SDS011;62994;52.126;5.596;2023-07-09T08:27:08;7.38;;;6.72;;
17564;SDS011;62994;52.126;5.596;2023-07-09T08:29:53;6.82;;;6.28;;
17564;SDS011;62994;52.126;5.596;2023-07-09T08:39:54;7.07;;;6.63;;
17564;SDS011;62994;52.126;5.596;2023-07-09T08:43:39;7.55;;;5.82;;
17564;SDS011;62994;52.126;5.596;2023-07-09T08:46:53;7.80;;;6.35;;
17564;SDS011;62994;52.126;5.596;2023-07-09T08:55:35;6.75;;;6.15;;
17564;SDS011;62994;52.126;5.596;2023-07-09T08:59:45;5.97;;;5.57;;
17564;SDS011;62994;52.126;5.596;2023-07-09T09:05:41;6.03;;;5.53;;
17564;SDS011;62994;52.126;5.596;2023-07-09T09:15:09;7.07;;;6.40;;
17564;SDS011;62994;52.126;5.596;2023-07-09T09:17:50;7.15;;;6.03;;
17564;SDS011;62994;52.126;5.596;2023-07-09T09:20:53;6.57;;;5.75;;
17564;SDS011;62994;52.126;5.596;2023-07-09T09:24:12;7.05;;;5.93;;
17564;SDS011;62994;52.126;5.596;2023-07-09T09:26:59;6.28;;;5.78;;
17564;SDS011;62994;52.126;5.596;2023-07-09T09:40:03;5.80;;;5.45;;
17564;SDS011;62994;52.126;5.596;2023-07-09T09:43:20;6.35;;;5.65;;
17564;SDS011;62994;52.126;5.596;2023-07-09T09:46:00;5.85;;;5.55;;
17564;SDS011;62994;52.126;5.596;2023-07-09T09:55:18;6.35;;;5.85;;
17564;SDS011;62994;52.126;5.596;2023-07-09T09:58:35;5.75;;;5.40;;
17564;SDS011;62994;52.126;5.596;2023-07-09T10:04:43;5.63;;;5.32;;
17564;SDS011;62994;52.126;5.596;2023-07-09T10:07:30;5.63;;;5.13;;
17564;SDS011;62994;52.126;5.596;2023-07-09T10:14:58;6.18;;;5.35;;
17564;SDS011;62994;52.126;5.596;2023-07-09T10:17:19;5.38;;;4.80;;
17564;SDS011;62994;52.126;5.596;2023-07-09T10:57:43;4.88;;;4.53;;
17564;SDS011;62994;52.126;5.596;2023-07-09T11:01:04;4.50;;;4.18;;
17564;SDS011;62994;52.126;5.596;2023-07-09T11:04:29;4.80;;;4.50;;
17564;SDS011;62994;52.126;5.596;2023-07-09T11:07:29;5.13;;;4.82;;
17564;SDS011;62994;52.126;5.596;2023-07-09T11:44:10;4.93;;;4.57;;
17564;SDS011;62994;52.126;5.596;2023-07-09T11:53:47;4.82;;;4.53;;
17564;SDS011;62994;52.126;5.596;2023-07-09T12:00:21;5.55;;;5.05;;
17564;SDS011;62994;52.126;5.596;2023-07-09T12:03:38;4.90;;;4.45;;
17564;SDS011;62994;52.126;5.596;2023-07-09T12:06:59;4.82;;;4.43;;
17564;SDS011;62994;52.126;5.596;2023-07-09T12:36:36;8.85;;;7.50;;
17564;SDS011;62994;52.126;5.596;2023-07-09T12:42:48;7.32;;;6.70;;
17564;SDS011;62994;52.126;5.596;2023-07-09T12:46:17;7.75;;;7.25;;
17564;SDS011;62994;52.126;5.596;2023-07-09T12:49:06;8.38;;;7.80;;
17564;SDS011;62994;52.126;5.596;2023-07-09T13:25:46;6.68;;;6.35;;
17564;SDS011;62994;52.126;5.596;2023-07-09T13:35:19;6.25;;;5.72;;
17564;SDS011;62994;52.126;5.596;2023-07-09T13:51:57;5.60;;;4.82;;
17564;SDS011;62994;52.126;5.596;2023-07-09T13:55:10;5.60;;;5.30;;
17564;SDS011;62994;52.126;5.596;2023-07-09T14:01:36;6.65;;;6.00;;
17564;SDS011;62994;52.126;5.596;2023-07-09T14:04:35;6.35;;;5.85;;
17564;SDS011;62994;52.126;5.596;2023-07-09T14:15:11;6.43;;;5.68;;
17564;SDS011;62994;52.126;5.596;2023-07-09T14:20:11;5.30;;;4.90;;
17564;SDS011;62994;52.126;5.596;2023-07-09T14:23:37;5.05;;;4.75;;
17564;SDS011;62994;52.126;5.596;2023-07-09T14:53:34;3.38;;;3.10;;
17564;SDS011;62994;52.126;5.596;2023-07-09T15:00:28;9.82;;;4.28;;
17564;SDS011;62994;52.126;5.596;2023-07-09T15:04:09;19.67;;;6.55;;
17564;SDS011;62994;52.126;5.596;2023-07-09T15:07:18;16.30;;;6.15;;
17564;SDS011;62994;52.126;5.596;2023-07-09T15:23:47;5.63;;;3.80;;
17564;SDS011;62994;52.126;5.596;2023-07-09T15:26:38;6.15;;;3.40;;
17564;SDS011;62994;52.126;5.596;2023-07-09T15:30:10;4.50;;;3.90;;
17564;SDS011;62994;52.126;5.596;2023-07-09T15:33:49;3.85;;;3.58;;
17564;SDS011;62994;52.126;5.596;2023-07-09T15:36:04;3.60;;;3.30;;
17564;SDS011;62994;52.126;5.596;2023-07-09T15:49:20;4.45;;;3.78;;
17564;SDS011;62994;52.126;5.596;2023-07-09T15:52:11;4.10;;;3.80;;
17564;SDS011;62994;52.126;5.596;2023-07-09T15:55:37;4.55;;;4.20;;
17564;SDS011;62994;52.126;5.596;2023-07-09T16:03:12;4.07;;;3.70;;
17564;SDS011;62994;52.126;5.596;2023-07-09T16:08:15;7.07;;;4.90;;
17564;SDS011;62994;52.126;5.596;2023-07-09T16:13:08;5.18;;;4.50;;
17564;SDS011;62994;52.126;5.596;2023-07-09T16:14:12;6.10;;;4.40;;
17564;SDS011;62994;52.126;5.596;2023-07-09T16:17:24;5.68;;;4.88;;
17564;SDS011;62994;52.126;5.596;2023-07-09T16:23:30;5.07;;;4.25;;
17564;SDS011;62994;52.126;5.596;2023-07-09T16:30:30;10.10;;;5.10;;
17564;SDS011;62994;52.126;5.596;2023-07-09T16:42:29;4.38;;;3.70;;
17564;SDS011;62994;52.126;5.596;2023-07-09T16:45:32;4.88;;;4.10;;
17564;SDS011;62994;52.126;5.596;2023-07-09T17:01:32;6.93;;;4.18;;
17564;SDS011;62994;52.126;5.596;2023-07-09T17:15:09;3.92;;;3.70;;
17564;SDS011;62994;52.126;5.596;2023-07-09T17:18:24;8.80;;;3.50;;
17564;SDS011;62994;52.126;5.596;2023-07-09T17:24:53;5.13;;;4.00;;
17564;SDS011;62994;52.126;5.596;2023-07-09T17:27:45;7.97;;;3.60;;
17564;SDS011;62994;52.126;5.596;2023-07-09T17:30:17;4.38;;;3.25;;
17564;SDS011;62994;52.126;5.596;2023-07-09T17:32:56;3.72;;;3.53;;
17564;SDS011;62994;52.126;5.596;2023-07-09T17:35:45;3.33;;;3.13;;
17564;SDS011;62994;52.126;5.596;2023-07-09T17:38:34;4.47;;;4.15;;
17564;SDS011;62994;52.126;5.596;2023-07-09T17:41:07;7.90;;;4.35;;
17564;SDS011;62994;52.126;5.596;2023-07-09T17:43:55;5.10;;;4.15;;
17564;SDS011;62994;52.126;5.596;2023-07-09T17:46:36;4.57;;;4.25;;
17564;SDS011;62994;52.126;5.596;2023-07-09T17:49:15;5.28;;;4.85;;
17564;SDS011;62994;52.126;5.596;2023-07-09T17:52:22;5.53;;;5.13;;
17564;SDS011;62994;52.126;5.596;2023-07-09T17:57:54;6.07;;;5.57;;
17564;SDS011;62994;52.126;5.596;2023-07-09T18:00:35;5.43;;;5.13;;
17564;SDS011;62994;52.126;5.596;2023-07-09T18:03:41;6.10;;;5.70;;
17564;SDS011;62994;52.126;5.596;2023-07-09T18:06:14;5.93;;;5.53;;
17564;SDS011;62994;52.126;5.596;2023-07-09T18:09:02;6.40;;;5.90;;
17564;SDS011;62994;52.126;5.596;2023-07-09T18:11:29;5.63;;;5.20;;
17564;SDS011;62994;52.126;5.596;2023-07-09T18:17:29;5.97;;;5.57;;
17564;SDS011;62994;52.126;5.596;2023-07-09T18:30:09;6.80;;;6.25;;
17564;SDS011;62994;52.126;5.596;2023-07-09T18:33:17;7.13;;;6.43;;
17564;SDS011;62994;52.126;5.596;2023-07-09T18:36:16;7.35;;;6.80;;
17564;SDS011;62994;52.126;5.596;2023-07-09T18:39:06;7.03;;;6.43;;
17564;SDS011;62994;52.126;5.596;2023-07-09T18:41:45;6.85;;;6.43;;
17564;SDS011;62994;52.126;5.596;2023-07-09T18:44:39;8.48;;;7.15;;
17564;SDS011;62994;52.126;5.596;2023-07-09T18:47:25;8.85;;;7.47;;
17564;SDS011;62994;52.126;5.596;2023-07-09T18:50:18;9.00;;;8.13;;
17564;SDS011;62994;52.126;5.596;2023-07-09T18:53:09;8.65;;;7.90;;
17564;SDS011;62994;52.126;5.596;2023-07-09T18:58:49;8.10;;;7.13;;
17564;SDS011;62994;52.126;5.596;2023-07-09T19:05:09;7.43;;;6.93;;
17564;SDS011;62994;52.126;5.596;2023-07-09T19:07:45;7.78;;;6.75;;
17564;SDS011;62994;52.126;5.596;2023-07-09T19:10:28;7.60;;;6.97;;
17564;SDS011;62994;52.126;5.596;2023-07-09T19:13:24;8.57;;;7.78;;
17564;SDS011;62994;52.126;5.596;2023-07-09T19:16:05;8.30;;;7.60;;
17564;SDS011;62994;52.126;5.596;2023-07-09T19:32:01;7.50;;;6.88;;
17564;SDS011;62994;52.126;5.596;2023-07-09T19:34:39;7.75;;;7.05;;
17564;SDS011;62994;52.126;5.596;2023-07-09T19:37:36;9.23;;;7.50;;
17564;SDS011;62994;52.126;5.596;2023-07-09T19:40:21;8.68;;;7.82;;
17564;SDS011;62994;52.126;5.596;2023-07-09T19:43:10;7.75;;;7.07;;
17564;SDS011;62994;52.126;5.596;2023-07-09T19:49:32;7.97;;;7.18;;
17564;SDS011;62994;52.126;5.596;2023-07-09T19:52:17;8.05;;;7.40;;
17564;SDS011;62994;52.126;5.596;2023-07-09T19:55:11;7.50;;;6.90;;
17564;SDS011;62994;52.126;5.596;2023-07-09T19:58:02;8.40;;;7.70;;
17564;SDS011;62994;52.126;5.596;2023-07-09T20:00:47;7.70;;;6.97;;
17564;SDS011;62994;52.126;5.596;2023-07-09T20:07:17;7.95;;;7.35;;
17564;SDS011;62994;52.126;5.596;2023-07-09T20:09:54;8.70;;;7.28;;
17564;SDS011;62994;52.126;5.596;2023-07-09T20:12:49;7.78;;;7.05;;
17564;SDS011;62994;52.126;5.596;2023-07-09T20:19:14;7.45;;;6.78;;
17564;SDS011;62994;52.126;5.596;2023-07-09T20:22:24;7.50;;;6.80;;
17564;SDS011;62994;52.126;5.596;2023-07-09T20:39:40;8.48;;;7.63;;
17564;SDS011;62994;52.126;5.596;2023-07-09T20:42:14;7.18;;;6.65;;
17564;SDS011;62994;52.126;5.596;2023-07-09T20:47:48;7.15;;;6.50;;
17564;SDS011;62994;52.126;5.596;2023-07-09T20:50:45;7.97;;;6.70;;
17564;SDS011;62994;52.126;5.596;2023-07-09T20:53:18;7.43;;;6.93;;
17564;SDS011;62994;52.126;5.596;2023-07-09T20:56:10;6.82;;;6.22;;
17564;SDS011;62994;52.126;5.596;2023-07-09T20:58:47;6.40;;;5.97;;
17564;SDS011;62994;52.126;5.596;2023-07-09T21:02:07;6.70;;;6.10;;
17564;SDS011;62994;52.126;5.596;2023-07-09T21:04:56;8.77;;;7.88;;
17564;SDS011;62994;52.126;5.596;2023-07-09T21:07:42;8.35;;;7.63;;
17564;SDS011;62994;52.126;5.596;2023-07-09T21:10:24;7.63;;;6.90;;
17564;SDS011;62994;52.126;5.596;2023-07-09T21:13:29;7.63;;;7.00;;
17564;SDS011;62994;52.126;5.596;2023-07-09T21:16:08;6.47;;;6.07;;
17564;SDS011;62994;52.126;5.596;2023-07-09T21:18:54;7.65;;;7.22;;
17564;SDS011;62994;52.126;5.596;2023-07-09T21:21:33;7.70;;;6.97;;
17564;SDS011;62994;52.126;5.596;2023-07-09T21:27:17;8.05;;;7.25;;
17564;SDS011;62994;52.126;5.596;2023-07-09T21:33:23;9.60;;;8.27;;
17564;SDS011;62994;52.126;5.596;2023-07-09T21:39:17;8.70;;;7.82;;
17564;SDS011;62994;52.126;5.596;2023-07-09T21:44:48;9.15;;;7.82;;
17564;SDS011;62994;52.126;5.596;2023-07-09T21:47:18;16.88;;;8.68;;
17564;SDS011;62994;52.126;5.596;2023-07-09T21:49:50;7.47;;;6.88;;
17564;SDS011;62994;52.126;5.596;2023-07-09T21:52:18;9.40;;;8.38;;
17564;SDS011;62994;52.126;5.596;2023-07-09T21:54:51;7.35;;;6.68;;
17564;SDS011;62994;52.126;5.596;2023-07-09T21:57:19;8.63;;;7.75;;
17564;SDS011;62994;52.126;5.596;2023-07-09T21:59:57;11.02;;;8.57;;
17564;SDS011;62994;52.126;5.596;2023-07-09T22:02:28;9.65;;;8.65;;
17564;SDS011;62994;52.126;5.596;2023-07-09T22:05:11;8.68;;;7.20;;
17564;SDS011;62994;52.126;5.596;2023-07-09T22:07:44;6.95;;;6.25;;
17564;SDS011;62994;52.126;5.596;2023-07-09T22:10:20;8.10;;;7.40;;
17564;SDS011;62994;52.126;5.596;2023-07-09T22:13:14;8.55;;;7.45;;
17564;SDS011;62994;52.126;5.596;2023-07-09T22:15:46;8.98;;;8.07;;
17564;SDS011;62994;52.126;5.596;2023-07-09T22:18:20;9.70;;;7.95;;
17564;SDS011;62994;52.126;5.596;2023-07-09T22:20:56;12.23;;;8.65;;
17564;SDS011;62994;52.126;5.596;2023-07-09T22:23:38;7.80;;;7.20;;
17564;SDS011;62994;52.126;5.596;2023-07-09T22:26:10;8.82;;;7.15;;
17564;SDS011;62994;52.126;5.596;2023-07-09T22:28:41;7.82;;;7.05;;
17564;SDS011;62994;52.126;5.596;2023-07-09T22:31:19;7.65;;;6.95;;
17564;SDS011;62994;52.126;5.596;2023-07-09T22:33:51;8.40;;;7.57;;
17564;SDS011;62994;52.126;5.596;2023-07-09T22:36:23;7.70;;;6.97;;
17564;SDS011;62994;52.126;5.596;2023-07-09T22:38:54;6.88;;;6.28;;
17564;SDS011;62994;52.126;5.596;2023-07-09T22:41:30;8.48;;;7.35;;
17564;SDS011;62994;52.126;5.596;2023-07-09T22:44:16;9.82;;;6.70;;
17564;SDS011;62994;52.126;5.596;2023-07-09T22:46:43;7.10;;;6.60;;
17564;SDS011;62994;52.126;5.596;2023-07-09T22:49:16;7.38;;;6.72;;
17564;SDS011;62994;52.126;5.596;2023-07-09T22:51:52;8.77;;;6.93;;
17564;SDS011;62994;52.126;5.596;2023-07-09T22:54:24;8.98;;;7.07;;
17564;SDS011;62994;52.126;5.596;2023-07-09T22:56:53;6.40;;;5.93;;
17564;SDS011;62994;52.126;5.596;2023-07-09T22:59:26;6.93;;;6.25;;
17564;SDS011;62994;52.126;5.596;2023-07-09T23:01:55;6.80;;;5.63;;
17564;SDS011;62994;52.126;5.596;2023-07-09T23:04:32;6.03;;;5.53;;
17564;SDS011;62994;52.126;5.596;2023-07-09T23:07:08;7.35;;;6.05;;
17564;SDS011;62994;52.126;5.596;2023-07-09T23:09:37;7.65;;;6.22;;
17564;SDS011;62994;52.126;5.596;2023-07-09T23:12:04;6.95;;;6.35;;
17564;SDS011;62994;52.126;5.596;2023-07-09T23:14:39;6.90;;;5.82;;
17564;SDS011;62994;52.126;5.596;2023-07-09T23:17:09;6.25;;;5.75;;
17564;SDS011;62994;52.126;5.596;2023-07-09T23:19:38;7.65;;;5.97;;
17564;SDS011;62994;52.126;5.596;2023-07-09T23:22:27;7.80;;;5.95;;
17564;SDS011;62994;52.126;5.596;2023-07-09T23:24:55;8.27;;;5.30;;
17564;SDS011;62994;52.126;5.596;2023-07-09T23:27:30;7.20;;;6.57;;
17564;SDS011;62994;52.126;5.596;2023-07-09T23:30:00;6.55;;;6.00;;
17564;SDS011;62994;52.126;5.596;2023-07-09T23:32:36;9.20;;;5.63;;
17564;SDS011;62994;52.126;5.596;2023-07-09T23:35:12;5.72;;;5.25;;
17564;SDS011;62994;52.126;5.596;2023-07-09T23:37:49;6.75;;;5.70;;
17564;SDS011;62994;52.126;5.596;2023-07-09T23:40:16;5.68;;;5.18;;
17564;SDS011;62994;52.126;5.596;2023-07-09T23:42:50;6.40;;;5.78;;
17564;SDS011;62994;52.126;5.596;2023-07-09T23:45:20;5.82;;;4.85;;
17564;SDS011;62994;52.126;5.596;2023-07-09T23:47:56;7.03;;;4.43;;
17564;SDS011;62994;52.126;5.596;2023-07-09T23:50:44;6.40;;;5.32;;
17564;SDS011;62994;52.126;5.596;2023-07-09T23:53:19;7.35;;;4.93;;
17564;SDS011;62994;52.126;5.596;2023-07-09T23:55:54;5.85;;;5.07;;
17564;SDS011;62994;52.126;5.596;2023-07-09T23:58:27;4.55;;;4.22;;
